createdAt,value
2022-12-24T00:01:04.728Z,32.35
2022-12-24T00:06:15.833Z,30.63
2022-12-24T00:25:12.535Z,32.30
2022-12-24T00:31:02.436Z,27.92
2022-12-24T00:36:25.438Z,30.92
2022-12-24T00:54:38.312Z,32.05
2022-12-24T00:59:47.567Z,28.83
2022-12-24T09:27:32.676Z,21.50
2022-12-24T11:08:23.296Z,9.90
2022-12-24T11:31:41.857Z,9.93
2022-12-24T11:36:59.453Z,11.93
2022-12-24T11:53:38.859Z,12.05
2022-12-24T15:35:50.764Z,14.80
2022-12-24T15:40:57.796Z,15.32
2022-12-24T15:46:05.494Z,17.42
2022-12-24T15:51:17.374Z,15.75
2022-12-24T15:56:38.425Z,15.13
2022-12-24T16:01:46.004Z,15.93
2022-12-24T16:07:05.826Z,15.75
2022-12-24T16:12:20.638Z,16.63
2022-12-24T16:17:28.431Z,13.63
2022-12-24T16:22:37.054Z,14.07
2022-12-24T16:27:43.045Z,14.43
2022-12-24T16:32:51.911Z,13.07
2022-12-24T16:38:00.890Z,14.52
2022-12-24T16:43:24.670Z,14.25
2022-12-24T16:48:30.616Z,14.45
2022-12-24T16:53:39.239Z,15.70
2022-12-24T16:58:45.980Z,15.65
2022-12-24T17:03:52.094Z,15.70
2022-12-24T17:09:00.646Z,16.50
2022-12-24T17:14:08.752Z,17.10
2022-12-24T17:19:15.807Z,16.20
2022-12-24T17:24:26.200Z,15.77
2022-12-24T17:29:33.124Z,16.95
2022-12-24T17:34:40.178Z,17.95
2022-12-24T17:39:48.950Z,19.63
2022-12-24T17:44:54.893Z,17.90
2022-12-24T17:50:01.273Z,19.42
2022-12-24T17:55:13.636Z,19.98
2022-12-24T18:00:21.305Z,20.13
2022-12-24T18:05:27.270Z,19.13
2022-12-24T18:10:35.917Z,16.42
2022-12-24T18:15:44.053Z,17.55
2022-12-24T18:20:50.077Z,16.70
2022-12-24T18:25:59.852Z,17.33
2022-12-24T18:31:07.915Z,21.70
2022-12-24T18:41:28.275Z,26.33
2022-12-24T18:46:37.466Z,28.33
2022-12-24T18:51:46.331Z,26.02
2022-12-24T18:56:56.790Z,25.95
2022-12-24T19:02:07.553Z,26.17
2022-12-24T19:07:18.472Z,31.48
2022-12-24T19:12:27.050Z,32.08
2022-12-24T19:17:36.216Z,32.83
2022-12-24T20:02:40.592Z,22.35
2022-12-24T20:07:46.612Z,22.10
2022-12-24T20:12:52.426Z,20.77
2022-12-24T20:18:02.491Z,24.25
2022-12-24T20:23:09.050Z,15.25
2022-12-24T20:28:15.672Z,14.00
2022-12-24T20:33:24.385Z,14.13
2022-12-24T20:38:32.657Z,15.35
2022-12-24T20:48:54.741Z,14.48
2022-12-24T20:54:05.696Z,16.15
2022-12-24T20:59:11.781Z,26.48
2022-12-24T21:09:45.571Z,18.50
2022-12-24T21:14:52.835Z,19.55
2022-12-24T21:20:12.782Z,16.40
2022-12-24T21:25:18.754Z,15.93
2022-12-24T21:30:24.941Z,13.60
2022-12-24T21:35:33.385Z,12.00
2022-12-24T21:40:39.923Z,11.18
2022-12-24T21:45:46.582Z,12.75
2022-12-24T21:51:01.815Z,14.20
2022-12-24T21:56:12.848Z,12.80
2022-12-24T22:01:18.855Z,13.63
2022-12-24T22:06:51.517Z,14.25
2022-12-24T22:11:57.320Z,13.48
2022-12-24T22:17:04.029Z,14.13
2022-12-24T22:22:12.451Z,15.90
2022-12-24T22:32:24.084Z,13.10
2022-12-24T22:37:32.611Z,12.88
2022-12-24T22:42:50.465Z,13.98
2022-12-24T22:48:29.024Z,27.63
2022-12-24T22:53:37.594Z,19.08
2022-12-24T22:58:43.396Z,20.63
2022-12-24T23:03:49.198Z,21.02
2022-12-24T23:08:57.705Z,20.65
2022-12-24T23:19:21.665Z,18.92
2022-12-24T23:24:30.287Z,19.50
2022-12-24T23:29:35.910Z,17.10
2022-12-24T23:34:41.062Z,17.13
2022-12-24T23:39:48.780Z,15.10
2022-12-24T23:44:54.108Z,14.25
2022-12-24T23:55:23.663Z,14.80
